Terminal Aerodrome Forecast
Issued by NWS

Current Version | Previous Version | Text Only | Print | Product List | Glossary On
Versions: 1 2 3 4 5 6 7 8 9 10 11 12 13 14 15 16 17 18 19 20 21 22
000
FTUS43 KGRB 122341
TAFMTW
TAF
KMTW 122341Z 1300/1324 32009KT P6SM SCT200
     FM130100 28005KT P6SM BKN080
     FM130900 18004KT 6SM -SN OVC040
     FM131100 16006KT 3SM -SN OVC028
     FM131200 13009KT 1SM -SN OVC011
     FM131800 08011G17KT 3/4SM -SN OVC008=

USA.gov is the U.S. government's official web portal to all federal, state and local government web resources and services.